ETHL

Laupheim Air Base

Airport
ICAO code
ETHL
Summary
ICAO Region
EUR
ICAO Territory
Location

Laupheim, Baden-Württemberg,

Coordinates
48° 13' 12" N , 9° 54' 35" E
Metar
Observation
ETHL 031920Z AUTO 25017KT 9999 // ////// 05/02 Q1028 ///
Station
Laupheim
Date/Time
2023-02-03 20:20:00
Wind direction
250°
Wind speed
17 kts
Lowest cloud amount
n/a
Temperature
5°C
Dew point
2°C
Humidity
80%
QNH
1028 hPa
Weather condition
n/a

Description

Laupheim Air Base is located close to the city of Laupheim, Baden-Württemberg, Germany.

Runways

Designator Length Width Surface Rops
3/21 600 50 GRS No/No
9/27 1646 30 ASP No/No

Airport map

Aerial View

SKYbrary Partners:

Safety knowledge contributed by: